createdAt,value
2023-02-11T00:01:20.056Z,10.63
2023-02-11T00:03:47.654Z,10.90
2023-02-11T00:06:15.400Z,10.90
2023-02-11T00:08:42.890Z,10.07
2023-02-11T00:11:13.327Z,9.80
2023-02-11T00:13:40.730Z,10.20
2023-02-11T00:16:09.265Z,10.17
2023-02-11T00:18:38.078Z,10.73
2023-02-11T00:21:09.456Z,10.70
2023-02-11T00:23:37.056Z,11.30
2023-02-11T00:26:05.274Z,11.20
2023-02-11T00:28:32.709Z,10.40
2023-02-11T00:31:01.672Z,10.33
2023-02-11T00:33:29.196Z,11.13
2023-02-11T00:35:57.979Z,11.17
2023-02-11T00:38:25.421Z,10.80
2023-02-11T00:40:52.860Z,10.90
2023-02-11T00:43:20.336Z,10.40
2023-02-11T00:45:48.006Z,11.50
2023-02-11T00:48:15.600Z,11.73
2023-02-11T00:50:43.019Z,12.00
2023-02-11T00:53:12.076Z,11.07
2023-02-11T00:55:39.616Z,11.93
2023-02-11T00:58:07.049Z,11.40
2023-02-11T01:00:34.549Z,11.87
2023-02-11T01:03:02.000Z,11.30
2023-02-11T01:05:29.851Z,12.37
2023-02-11T01:07:57.338Z,11.77
2023-02-11T01:10:26.150Z,11.13
2023-02-11T01:12:53.785Z,11.47
2023-02-11T01:15:21.757Z,10.43
2023-02-11T01:17:49.215Z,10.67
2023-02-11T01:20:18.025Z,11.87
2023-02-11T01:22:45.469Z,11.90
2023-02-11T01:25:12.955Z,12.30
2023-02-11T01:27:41.728Z,12.00
2023-02-11T01:30:10.792Z,12.30
2023-02-11T01:32:38.310Z,11.63
2023-02-11T01:35:06.059Z,11.43
2023-02-11T01:37:33.850Z,11.87
2023-02-11T01:40:02.253Z,12.33
2023-02-11T01:42:29.983Z,11.17
2023-02-11T01:44:59.412Z,12.20
2023-02-11T01:47:26.898Z,12.20
2023-02-11T01:49:56.608Z,12.10
2023-02-11T01:52:26.352Z,12.80
2023-02-11T01:55:12.660Z,13.13
2023-02-11T01:57:41.253Z,12.07
2023-02-11T02:00:12.082Z,12.10
2023-02-11T02:02:44.170Z,12.53
2023-02-11T02:05:17.440Z,13.40
2023-02-11T02:07:46.992Z,12.33
2023-02-11T02:10:16.380Z,13.57
2023-02-11T02:12:43.851Z,13.67
2023-02-11T02:15:38.584Z,13.10
2023-02-11T02:18:17.026Z,13.10
2023-02-11T02:20:59.255Z,13.70
2023-02-11T02:23:32.908Z,13.70
2023-02-11T02:26:15.249Z,12.53
2023-02-11T02:28:53.801Z,12.27
2023-02-11T02:31:36.117Z,11.87
2023-02-11T02:34:07.882Z,13.73
2023-02-11T02:36:38.083Z,13.10
2023-02-11T02:39:07.521Z,12.67
2023-02-11T02:41:36.188Z,13.97
2023-02-11T02:44:03.734Z,13.83
2023-02-11T02:46:32.461Z,13.20
2023-02-11T02:49:00.567Z,13.40
2023-02-11T02:51:49.307Z,13.30
2023-02-11T02:54:34.270Z,13.73
2023-02-11T02:57:09.233Z,14.47
2023-02-11T02:59:43.018Z,12.63
2023-02-11T03:02:14.221Z,14.63
2023-02-11T03:04:47.903Z,13.63
2023-02-11T03:07:21.348Z,14.33
2023-02-11T03:09:51.067Z,15.03
2023-02-11T03:12:18.625Z,16.37
2023-02-11T03:14:46.485Z,15.07
2023-02-11T03:17:15.187Z,15.70
2023-02-11T03:19:44.354Z,15.30
2023-02-11T03:22:13.448Z,14.90
2023-02-11T03:24:42.968Z,14.80
2023-02-11T03:27:11.881Z,16.60
2023-02-11T03:29:41.750Z,15.50
2023-02-11T03:32:16.011Z,16.00
2023-02-11T03:34:45.235Z,15.63
2023-02-11T03:37:15.104Z,15.47
2023-02-11T03:39:45.473Z,15.77
2023-02-11T03:42:14.493Z,16.40
2023-02-11T03:44:43.747Z,16.10
2023-02-11T03:47:11.906Z,15.73
2023-02-11T03:49:40.786Z,17.23
2023-02-11T03:52:11.281Z,17.73
2023-02-11T03:54:39.588Z,16.47
2023-02-11T03:57:08.594Z,17.13
2023-02-11T03:59:50.495Z,16.70
2023-02-11T04:02:17.983Z,15.63
2023-02-11T04:04:45.540Z,16.67
2023-02-11T04:07:13.289Z,16.40
2023-02-11T04:09:40.751Z,15.80
2023-02-11T04:12:09.786Z,16.30
2023-02-11T04:14:37.412Z,15.90
2023-02-11T04:17:05.064Z,15.90
2023-02-11T04:19:32.726Z,16.73
2023-02-11T04:22:00.227Z,18.43
2023-02-11T04:24:28.142Z,18.63
2023-02-11T04:26:55.777Z,18.27
2023-02-11T04:29:24.509Z,19.47
2023-02-11T04:31:51.979Z,18.17
2023-02-11T04:34:19.398Z,18.03
2023-02-11T04:36:46.863Z,17.97
2023-02-11T04:39:14.404Z,17.63
2023-02-11T04:41:41.861Z,17.73
2023-02-11T04:44:09.483Z,16.80
2023-02-11T04:46:38.323Z,17.77
2023-02-11T04:49:05.806Z,17.43
2023-02-11T04:51:33.273Z,18.90
2023-02-11T04:54:00.719Z,17.37
2023-02-11T04:56:28.151Z,17.93
2023-02-11T04:58:55.608Z,17.87
2023-02-11T05:01:23.271Z,17.57
2023-02-11T05:03:52.169Z,17.80
2023-02-11T05:06:19.793Z,18.10
2023-02-11T05:08:47.192Z,16.90
2023-02-11T05:11:16.466Z,17.00
2023-02-11T05:13:44.083Z,16.43
2023-02-11T05:16:11.495Z,17.23
2023-02-11T05:18:38.962Z,16.93
2023-02-11T05:21:08.766Z,16.63
2023-02-11T05:23:36.484Z,17.37
2023-02-11T05:26:04.537Z,17.40
2023-02-11T05:28:32.155Z,15.70
2023-02-11T05:30:59.796Z,17.07
2023-02-11T05:33:27.247Z,16.40
2023-02-11T05:35:58.852Z,16.30
2023-02-11T05:38:27.659Z,15.80
2023-02-11T05:40:55.338Z,15.90
2023-02-11T05:43:22.856Z,15.73
2023-02-11T05:45:50.770Z,15.43
2023-02-11T05:48:18.518Z,16.37
2023-02-11T05:50:46.424Z,14.60
2023-02-11T05:53:15.353Z,15.50
2023-02-11T05:55:44.186Z,16.93
2023-02-11T05:58:11.669Z,16.07
2023-02-11T06:00:39.165Z,15.30
2023-02-11T06:03:06.587Z,15.13
2023-02-11T06:05:34.218Z,16.30
2023-02-11T06:08:01.688Z,16.80
2023-02-11T06:10:29.146Z,16.23
2023-02-11T06:12:57.877Z,16.53
2023-02-11T06:15:25.362Z,16.50
2023-02-11T06:17:53.074Z,16.17
2023-02-11T06:20:20.591Z,14.83
2023-02-11T06:22:48.010Z,15.70
2023-02-11T06:25:15.743Z,16.47
2023-02-11T06:27:43.169Z,15.93
2023-02-11T06:30:12.887Z,15.70
2023-02-11T06:32:44.656Z,16.20
2023-02-11T06:35:12.956Z,16.23
2023-02-11T06:37:40.373Z,16.20
2023-02-11T06:40:08.251Z,15.87
2023-02-11T06:42:38.388Z,16.93
2023-02-11T06:45:06.267Z,17.30
2023-02-11T06:47:35.014Z,17.63
2023-02-11T06:50:02.586Z,16.63
2023-02-11T06:52:30.009Z,16.30
2023-02-11T06:54:57.440Z,16.90
2023-02-11T06:57:24.883Z,16.73
2023-02-11T06:59:52.482Z,16.90
2023-02-11T07:02:21.138Z,16.80
2023-02-11T07:04:50.174Z,17.00
2023-02-11T07:07:17.609Z,16.27
2023-02-11T07:09:45.136Z,16.37
2023-02-11T07:12:12.593Z,17.10
2023-02-11T07:14:40.343Z,16.70
2023-02-11T07:17:07.709Z,16.63
2023-02-11T07:19:35.165Z,16.50
2023-02-11T07:22:04.072Z,15.57
2023-02-11T07:24:31.614Z,16.20
2023-02-11T07:26:59.197Z,16.40
2023-02-11T07:29:26.548Z,17.50
2023-02-11T07:31:54.031Z,16.20
2023-02-11T07:34:21.571Z,17.53
2023-02-11T07:36:49.977Z,16.90
2023-02-11T07:39:20.034Z,16.23
2023-02-11T07:41:49.321Z,16.97
2023-02-11T07:44:16.901Z,17.17
2023-02-11T07:46:45.452Z,18.10
2023-02-11T07:49:13.143Z,18.20
2023-02-11T07:51:40.584Z,16.90
2023-02-11T07:54:08.289Z,17.77
2023-02-11T07:56:37.090Z,18.30
2023-02-11T07:59:04.500Z,17.90
2023-02-11T08:01:32.268Z,17.10
2023-02-11T08:04:01.127Z,18.17
2023-02-11T08:06:29.292Z,17.83
2023-02-11T08:08:56.724Z,17.70
2023-02-11T08:11:25.061Z,17.30
2023-02-11T08:13:53.947Z,17.30
2023-02-11T08:16:22.405Z,18.80
2023-02-11T08:18:50.487Z,18.33
2023-02-11T08:21:18.229Z,18.90
2023-02-11T08:23:46.707Z,19.20
2023-02-11T08:26:15.233Z,17.60
2023-02-11T08:28:44.267Z,19.00
2023-02-11T08:31:14.163Z,19.17
2023-02-11T08:33:41.793Z,18.70
2023-02-11T08:36:09.943Z,19.47
2023-02-11T08:38:37.402Z,19.40
2023-02-11T08:41:05.051Z,19.00
2023-02-11T08:43:32.853Z,18.00
2023-02-11T08:46:02.140Z,18.80
2023-02-11T08:48:31.389Z,18.70
2023-02-11T08:50:58.900Z,18.97
2023-02-11T08:53:27.700Z,17.80
2023-02-11T08:55:56.044Z,18.97
2023-02-11T08:58:23.712Z,18.70
2023-02-11T09:00:51.878Z,18.93
2023-02-11T09:03:19.565Z,17.70
2023-02-11T09:05:49.844Z,18.00
2023-02-11T09:08:18.164Z,18.93
2023-02-11T09:10:45.680Z,18.60
2023-02-11T09:13:13.340Z,18.90
2023-02-11T09:15:40.809Z,18.77
2023-02-11T09:18:08.318Z,17.80
2023-02-11T09:20:35.714Z,19.03
2023-02-11T09:23:04.589Z,18.83
2023-02-11T09:25:32.077Z,18.80
2023-02-11T09:27:59.534Z,18.03
2023-02-11T09:30:27.038Z,18.80
2023-02-11T09:32:54.544Z,19.10
2023-02-11T09:35:22.005Z,18.90
2023-02-11T09:37:49.384Z,19.97
2023-02-11T09:40:19.172Z,21.20
2023-02-11T09:42:48.918Z,19.77
2023-02-11T09:45:19.886Z,19.97
2023-02-11T09:47:49.097Z,19.50
2023-02-11T09:50:19.382Z,18.33
2023-02-11T09:52:49.145Z,17.93
2023-02-11T09:55:21.412Z,19.03
2023-02-11T09:57:49.006Z,18.07
2023-02-11T10:00:21.398Z,17.90
2023-02-11T10:03:03.979Z,17.90
2023-02-11T10:05:36.180Z,17.23
2023-02-11T10:08:09.796Z,19.27
2023-02-11T10:10:45.447Z,18.63
2023-02-11T10:13:24.001Z,17.47
2023-02-11T10:15:57.301Z,18.90
2023-02-11T10:18:37.940Z,18.10
2023-02-11T10:21:10.789Z,17.80
2023-02-11T10:23:40.985Z,18.50
2023-02-11T10:26:13.254Z,17.90
2023-02-11T10:28:41.322Z,17.67
2023-02-11T10:31:11.472Z,18.30
2023-02-11T10:33:43.468Z,18.40
2023-02-11T10:36:11.953Z,17.53
2023-02-11T10:38:39.502Z,18.27
2023-02-11T10:41:07.601Z,18.73
2023-02-11T10:43:36.588Z,18.67
2023-02-11T10:46:04.676Z,19.87
2023-02-11T10:48:40.359Z,18.30
2023-02-11T10:51:09.009Z,18.70
2023-02-11T10:53:36.543Z,17.63
2023-02-11T10:56:04.537Z,18.90
2023-02-11T10:58:32.780Z,18.50
2023-02-11T11:01:02.765Z,19.63
2023-02-11T11:03:34.652Z,19.47
2023-02-11T11:06:03.117Z,19.83
2023-02-11T11:08:41.384Z,19.53
2023-02-11T11:11:09.632Z,20.10
2023-02-11T11:13:37.859Z,19.30
2023-02-11T11:16:16.084Z,19.97
2023-02-11T11:18:44.561Z,19.93
2023-02-11T11:21:14.773Z,19.93
2023-02-11T11:23:48.215Z,18.97
2023-02-11T11:26:16.640Z,20.10
2023-02-11T11:28:51.343Z,20.97
2023-02-11T11:31:21.501Z,20.73
2023-02-11T11:33:49.617Z,18.30
2023-02-11T11:36:18.314Z,19.83
2023-02-11T11:38:46.764Z,19.67
2023-02-11T11:41:15.496Z,20.73
2023-02-11T11:43:54.504Z,19.50
2023-02-11T11:46:26.111Z,19.13
2023-02-11T11:48:57.169Z,19.27
2023-02-11T11:51:25.274Z,18.57
2023-02-11T11:53:57.193Z,17.90
2023-02-11T11:56:26.791Z,19.00
2023-02-11T11:58:55.177Z,17.80
2023-02-11T12:01:30.727Z,16.60
2023-02-11T12:04:04.386Z,17.60
2023-02-11T12:06:39.367Z,17.13
2023-02-11T12:09:10.778Z,16.70
2023-02-11T12:11:45.940Z,19.30
2023-02-11T12:14:16.131Z,18.10
2023-02-11T12:16:53.008Z,18.30
2023-02-11T12:19:34.762Z,16.57
2023-02-11T12:22:07.452Z,16.27
2023-02-11T12:24:41.917Z,17.23
2023-02-11T12:27:12.413Z,16.97
2023-02-11T12:29:43.609Z,16.83
2023-02-11T12:32:26.573Z,16.57
2023-02-11T12:35:00.554Z,17.00
2023-02-11T12:37:32.868Z,16.30
2023-02-11T12:40:04.856Z,17.03
2023-02-11T12:42:55.484Z,17.00
2023-02-11T12:45:27.493Z,17.50
2023-02-11T12:48:03.153Z,16.97
2023-02-11T12:50:34.670Z,17.07
2023-02-11T12:53:09.997Z,17.07
2023-02-11T12:55:39.771Z,17.27
2023-02-11T12:58:14.254Z,18.03
2023-02-11T13:00:43.605Z,16.67
2023-02-11T13:03:16.797Z,18.13
2023-02-11T13:05:47.034Z,18.60
2023-02-11T13:08:17.007Z,18.30
2023-02-11T13:10:46.952Z,19.13
2023-02-11T13:13:19.485Z,18.57
2023-02-11T13:15:49.441Z,18.10
2023-02-11T13:18:31.536Z,17.80
2023-02-11T13:21:02.330Z,17.80
2023-02-11T13:23:35.822Z,18.50
2023-02-11T13:26:06.643Z,19.80
2023-02-11T13:28:41.337Z,19.53
2023-02-11T13:31:09.690Z,19.47
2023-02-11T13:33:42.992Z,19.40
2023-02-11T13:36:15.464Z,19.00
2023-02-11T13:38:52.317Z,19.07
2023-02-11T13:41:22.255Z,18.87
2023-02-11T13:43:58.354Z,19.03
2023-02-11T13:46:26.595Z,18.50
2023-02-11T13:48:55.635Z,20.20
2023-02-11T13:51:35.501Z,19.73
2023-02-11T13:54:03.477Z,20.07
2023-02-11T13:56:31.643Z,21.13
2023-02-11T13:59:02.016Z,19.80
2023-02-11T14:02:15.936Z,19.47
2023-02-11T14:05:15.706Z,20.37
2023-02-11T14:08:22.585Z,20.30
2023-02-11T14:10:51.394Z,18.27
2023-02-11T14:13:23.147Z,19.97
2023-02-11T14:16:04.010Z,19.83
2023-02-11T14:18:37.598Z,21.37
2023-02-11T14:21:11.733Z,21.50
2023-02-11T14:23:40.713Z,20.70
2023-02-11T14:26:19.991Z,20.37
2023-02-11T14:28:49.232Z,20.27
2023-02-11T14:31:19.478Z,19.47
2023-02-11T14:34:01.680Z,19.27
2023-02-11T14:36:46.728Z,20.43
2023-02-11T14:39:20.250Z,18.93
2023-02-11T14:41:48.581Z,18.60
2023-02-11T14:44:17.396Z,19.60
2023-02-11T14:46:46.140Z,19.20
2023-02-11T14:49:19.322Z,20.60
2023-02-11T14:51:46.980Z,20.83
2023-02-11T14:54:17.122Z,20.77
2023-02-11T14:56:46.890Z,20.83
2023-02-11T14:59:17.766Z,20.20
2023-02-11T15:01:47.323Z,20.40
2023-02-11T15:04:24.319Z,19.57
2023-02-11T15:06:51.965Z,19.33
2023-02-11T15:09:21.082Z,20.10
2023-02-11T15:11:50.415Z,20.90
2023-02-11T15:14:22.053Z,19.70
2023-02-11T15:16:50.688Z,20.20
2023-02-11T15:19:22.150Z,19.40
2023-02-11T15:21:50.627Z,20.20
2023-02-11T15:24:25.877Z,20.40
2023-02-11T15:26:58.171Z,19.97
2023-02-11T15:29:26.036Z,20.87
2023-02-11T15:32:04.157Z,20.37
2023-02-11T15:34:31.872Z,18.53
2023-02-11T15:36:59.416Z,20.60
2023-02-11T15:39:31.593Z,21.00
2023-02-11T15:42:14.115Z,19.93
2023-02-11T15:44:42.919Z,20.30
2023-02-11T15:47:10.748Z,21.37
2023-02-11T15:49:38.506Z,20.77
2023-02-11T15:52:08.202Z,21.80
2023-02-11T15:54:35.673Z,20.60
2023-02-11T15:57:04.224Z,20.90
2023-02-11T15:59:35.295Z,19.87
2023-02-11T16:02:09.786Z,21.60
2023-02-11T16:04:37.362Z,20.67
2023-02-11T16:07:05.140Z,21.63
2023-02-11T16:09:33.700Z,21.23
2023-02-11T16:12:03.440Z,21.03
2023-02-11T16:14:32.789Z,21.10
2023-02-11T16:17:02.272Z,21.53
2023-02-11T16:19:32.057Z,21.57
2023-02-11T16:22:00.472Z,23.07
2023-02-11T16:24:29.308Z,22.40
2023-02-11T16:26:57.890Z,21.57
2023-02-11T16:29:27.207Z,22.57
2023-02-11T16:31:55.843Z,21.30
2023-02-11T16:34:24.053Z,21.43
2023-02-11T16:36:53.539Z,21.13
2023-02-11T16:39:22.710Z,21.07
2023-02-11T16:41:51.750Z,23.63
2023-02-11T16:44:19.368Z,20.80
2023-02-11T16:46:46.947Z,22.67
2023-02-11T16:49:18.502Z,21.20
2023-02-11T16:51:47.089Z,21.57
2023-02-11T16:54:17.078Z,19.80
2023-02-11T16:56:44.656Z,20.60
2023-02-11T16:59:12.414Z,22.07
2023-02-11T17:01:41.273Z,23.23
2023-02-11T17:04:11.832Z,25.63
2023-02-11T17:06:39.345Z,25.03
2023-02-11T17:09:07.886Z,24.43
2023-02-11T17:11:36.680Z,25.00
2023-02-11T17:14:04.085Z,23.90
2023-02-11T17:16:32.553Z,22.67
2023-02-11T17:19:00.082Z,23.83
2023-02-11T17:21:29.891Z,23.67
2023-02-11T17:23:57.556Z,22.73
2023-02-11T17:26:24.961Z,23.80
2023-02-11T17:28:54.198Z,21.87
2023-02-11T17:31:21.674Z,22.80
2023-02-11T17:33:49.377Z,21.40
2023-02-11T17:36:16.743Z,22.00
2023-02-11T17:38:44.176Z,22.07
2023-02-11T17:41:11.779Z,21.33
2023-02-11T17:43:39.188Z,21.50
2023-02-11T17:46:09.121Z,22.50
2023-02-11T17:48:37.692Z,21.67
2023-02-11T17:51:05.249Z,21.97
2023-02-11T17:53:32.703Z,22.50
2023-02-11T17:56:06.240Z,21.53
2023-02-11T17:58:33.985Z,22.30
2023-02-11T18:01:01.461Z,22.50
2023-02-11T18:03:30.354Z,28.23
2023-02-11T18:06:00.380Z,29.40
2023-02-11T18:08:27.803Z,27.60
2023-02-11T18:10:55.323Z,26.53
2023-02-11T18:13:23.012Z,24.77
2023-02-11T18:15:50.657Z,25.07
2023-02-11T18:18:18.447Z,23.93
2023-02-11T18:20:56.109Z,22.80
2023-02-11T18:23:23.537Z,22.00
2023-02-11T18:25:51.254Z,21.93
2023-02-11T18:28:18.952Z,22.00
2023-02-11T18:30:46.533Z,24.70
2023-02-11T18:33:14.428Z,23.77
2023-02-11T18:35:42.389Z,23.97
2023-02-11T18:38:11.168Z,24.47
2023-02-11T18:40:39.917Z,23.00
2023-02-11T18:43:07.683Z,24.73
2023-02-11T18:45:35.234Z,24.50
2023-02-11T18:48:05.232Z,24.97
2023-02-11T18:50:32.665Z,22.53
2023-02-11T18:53:00.109Z,22.90
2023-02-11T18:55:28.870Z,23.50
2023-02-11T18:57:56.315Z,23.10
2023-02-11T19:00:23.983Z,24.33
2023-02-11T19:02:52.954Z,23.23
2023-02-11T19:05:21.515Z,24.80
2023-02-11T19:07:49.997Z,23.43
2023-02-11T19:10:17.666Z,24.90
2023-02-11T19:12:46.438Z,21.93
2023-02-11T19:15:14.159Z,21.80
2023-02-11T19:17:41.664Z,20.47
2023-02-11T19:20:09.733Z,20.53
2023-02-11T19:22:37.264Z,20.80
2023-02-11T19:25:04.935Z,19.40
2023-02-11T19:27:32.403Z,19.27
2023-02-11T19:30:01.422Z,19.47
2023-02-11T19:32:28.825Z,19.20
2023-02-11T19:34:56.251Z,20.10
2023-02-11T19:37:23.623Z,20.63
2023-02-11T19:39:51.040Z,19.93
2023-02-11T19:42:18.474Z,20.70
2023-02-11T19:44:45.880Z,19.40
2023-02-11T19:47:14.759Z,19.03
2023-02-11T19:49:42.175Z,20.00
2023-02-11T19:52:09.564Z,19.87
2023-02-11T19:54:38.589Z,19.00
2023-02-11T19:57:06.035Z,19.50
2023-02-11T19:59:33.497Z,18.93
2023-02-11T20:02:01.647Z,19.43
2023-02-11T20:04:32.142Z,19.40
2023-02-11T20:06:59.687Z,19.03
2023-02-11T20:09:28.998Z,19.50
2023-02-11T20:11:56.829Z,18.77
2023-02-11T20:14:26.198Z,18.00
2023-02-11T20:16:55.250Z,18.20
2023-02-11T20:19:23.022Z,17.77
2023-02-11T20:21:52.966Z,19.00
2023-02-11T20:24:21.006Z,19.17
2023-02-11T20:26:49.393Z,18.43
2023-02-11T20:29:17.257Z,19.10
2023-02-11T20:31:45.166Z,18.60
2023-02-11T20:34:12.855Z,19.57
2023-02-11T20:36:40.479Z,20.03
2023-02-11T20:39:09.740Z,20.17
2023-02-11T20:41:39.766Z,19.33
2023-02-11T20:44:08.284Z,19.23
2023-02-11T20:46:37.700Z,21.30
2023-02-11T20:49:05.796Z,20.17
2023-02-11T20:51:33.862Z,19.87
2023-02-11T20:54:01.757Z,20.83
2023-02-11T20:56:34.507Z,19.80
2023-02-11T20:59:03.811Z,19.20
2023-02-11T21:01:32.337Z,19.73
2023-02-11T21:04:00.817Z,18.63
2023-02-11T21:06:28.809Z,19.50
2023-02-11T21:08:57.601Z,19.53
2023-02-11T21:11:25.072Z,19.87
2023-02-11T21:13:53.891Z,20.60
2023-02-11T21:16:21.564Z,20.23
2023-02-11T21:18:49.973Z,19.60
2023-02-11T21:21:17.392Z,20.13
2023-02-11T21:23:44.847Z,18.60
2023-02-11T21:26:12.308Z,19.27
2023-02-11T21:28:41.069Z,17.73
2023-02-11T21:31:10.996Z,18.37
2023-02-11T21:33:39.255Z,18.70
2023-02-11T21:36:08.034Z,17.97
2023-02-11T21:38:35.980Z,18.23
2023-02-11T21:41:04.289Z,18.77
2023-02-11T21:43:31.947Z,17.27
2023-02-11T21:45:59.528Z,18.43
2023-02-11T21:48:28.333Z,19.20
2023-02-11T21:50:55.947Z,16.37
2023-02-11T21:53:23.324Z,18.50
2023-02-11T21:55:51.221Z,17.70
2023-02-11T21:58:18.677Z,18.30
2023-02-11T22:00:46.094Z,17.87
2023-02-11T22:03:13.949Z,18.20
2023-02-11T22:05:42.905Z,18.40
2023-02-11T22:08:10.349Z,18.17
2023-02-11T22:10:38.904Z,18.53
2023-02-11T22:13:06.361Z,17.93
2023-02-11T22:15:33.795Z,17.23
2023-02-11T22:18:01.242Z,17.23
2023-02-11T22:20:28.689Z,17.60
2023-02-11T22:22:57.455Z,18.63
2023-02-11T22:25:24.939Z,18.73
2023-02-11T22:27:52.339Z,18.23
2023-02-11T22:30:20.045Z,18.87
2023-02-11T22:32:47.529Z,17.97
2023-02-11T22:35:15.048Z,18.30
2023-02-11T22:37:42.492Z,18.10
2023-02-11T22:40:11.967Z,19.57
2023-02-11T22:42:39.396Z,18.00
2023-02-11T22:45:07.332Z,17.50
2023-02-11T22:47:36.173Z,17.70
2023-02-11T22:50:03.592Z,17.63
2023-02-11T22:52:30.993Z,17.43
2023-02-11T22:55:00.345Z,18.37
2023-02-11T22:57:29.427Z,17.67
2023-02-11T22:59:56.875Z,18.97
2023-02-11T23:02:24.330Z,19.60
2023-02-11T23:04:51.894Z,18.70
2023-02-11T23:07:19.333Z,18.97
2023-02-11T23:09:46.727Z,18.47
2023-02-11T23:12:14.111Z,18.70
2023-02-11T23:14:43.462Z,19.03
2023-02-11T23:17:10.870Z,18.60
2023-02-11T23:19:38.239Z,20.00
2023-02-11T23:22:05.636Z,18.80
2023-02-11T23:24:33.033Z,19.27
2023-02-11T23:27:00.444Z,19.10
2023-02-11T23:29:27.984Z,19.03
2023-02-11T23:31:58.780Z,19.40
2023-02-11T23:34:26.500Z,19.63
2023-02-11T23:36:54.061Z,20.63
2023-02-11T23:39:21.577Z,21.20
2023-02-11T23:41:48.975Z,20.97
2023-02-11T23:44:16.425Z,20.50
2023-02-11T23:46:43.874Z,19.60
2023-02-11T23:49:13.001Z,20.00
2023-02-11T23:51:40.439Z,19.70
2023-02-11T23:54:07.883Z,18.73
2023-02-11T23:56:36.808Z,18.80
2023-02-11T23:59:04.303Z,18.50
